YXGP weather

Grafton Hospital Helipad
Grafton, New South Wales, Australia

Public forecast

Using degrees Celsius for public forecast. Weather courtesy of forecast.io.

Closest aviation weather report (METAR) to Grafton Hospital Helipad

Closest report is Grafton Airport, 6.9 nm (12.9 km) SE. Retrieved 2019/10/16 08:00 UTC (30 minutes ago):

YGFN 160800Z AUTO 04010KT 9999 // NCD 26/17 Q1007

Closest aviation forecast (TAF) to Grafton Hospital Helipad

Closest forecast is Gold Coast Airport, 95.3 nm (176.6 km) NNE. Retrieved 2019/10/16 06:00 UTC (3 hours ago):

TAF YBCG 160519Z 1606/1706 01020KT 9999 FEW035 FM161200 35018KT 9999 FEW025 FM161500 34018KT 9999 SCT020 FM162100 34018KT 9999 FEW025 FM170200 01020KT 9999 FEW035 PROB30 TEMPO 1705/1706 VRB30G45KT 4000 TSRA SCT050CB